sensor_id;sensor_type;location;lat;lon;timestamp;temperature;humidity
13928;DHT22;7036;50.834;4.718;2023-08-08T00:01:15;21.90;62.50
13928;DHT22;7036;50.834;4.718;2023-08-08T00:03:42;21.90;62.50
13928;DHT22;7036;50.834;4.718;2023-08-08T00:06:09;21.90;62.60
13928;DHT22;7036;50.834;4.718;2023-08-08T00:08:37;21.90;64.00
13928;DHT22;7036;50.834;4.718;2023-08-08T00:11:04;21.80;62.60
13928;DHT22;7036;50.834;4.718;2023-08-08T00:13:31;21.90;62.60
13928;DHT22;7036;50.834;4.718;2023-08-08T00:15:59;21.90;63.30
13928;DHT22;7036;50.834;4.718;2023-08-08T00:18:27;21.80;63.30
13928;DHT22;7036;50.834;4.718;2023-08-08T00:20:55;21.80;63.30
13928;DHT22;7036;50.834;4.718;2023-08-08T00:23:23;21.80;63.30
13928;DHT22;7036;50.834;4.718;2023-08-08T00:25:50;21.80;62.60
13928;DHT22;7036;50.834;4.718;2023-08-08T00:28:19;21.80;63.30
13928;DHT22;7036;50.834;4.718;2023-08-08T00:30:46;21.80;62.60
13928;DHT22;7036;50.834;4.718;2023-08-08T00:33:12;21.80;62.60
13928;DHT22;7036;50.834;4.718;2023-08-08T00:35:40;21.80;62.50
13928;DHT22;7036;50.834;4.718;2023-08-08T00:38:07;21.80;62.70
13928;DHT22;7036;50.834;4.718;2023-08-08T00:40:36;21.80;62.70
13928;DHT22;7036;50.834;4.718;2023-08-08T00:43:03;21.80;62.70
13928;DHT22;7036;50.834;4.718;2023-08-08T00:45:30;21.80;62.60
13928;DHT22;7036;50.834;4.718;2023-08-08T00:47:58;21.80;63.50
13928;DHT22;7036;50.834;4.718;2023-08-08T00:50:26;21.80;63.30
13928;DHT22;7036;50.834;4.718;2023-08-08T00:52:54;21.80;63.70
13928;DHT22;7036;50.834;4.718;2023-08-08T00:55:22;21.80;63.30
13928;DHT22;7036;50.834;4.718;2023-08-08T00:57:50;21.80;63.30
13928;DHT22;7036;50.834;4.718;2023-08-08T01:00:18;21.80;63.30
13928;DHT22;7036;50.834;4.718;2023-08-08T01:02:46;21.80;63.30
13928;DHT22;7036;50.834;4.718;2023-08-08T01:05:14;21.80;63.40
13928;DHT22;7036;50.834;4.718;2023-08-08T01:07:52;21.80;64.20
13928;DHT22;7036;50.834;4.718;2023-08-08T01:10:19;21.80;62.70
13928;DHT22;7036;50.834;4.718;2023-08-08T01:12:48;21.80;62.60
13928;DHT22;7036;50.834;4.718;2023-08-08T01:15:13;21.80;62.60
13928;DHT22;7036;50.834;4.718;2023-08-08T01:17:41;21.80;62.60
13928;DHT22;7036;50.834;4.718;2023-08-08T01:20:07;21.80;62.70
13928;DHT22;7036;50.834;4.718;2023-08-08T01:22:55;21.80;64.10
13928;DHT22;7036;50.834;4.718;2023-08-08T01:25:17;21.80;62.70
13928;DHT22;7036;50.834;4.718;2023-08-08T01:27:45;21.80;62.80
13928;DHT22;7036;50.834;4.718;2023-08-08T01:30:12;21.80;62.80
13928;DHT22;7036;50.834;4.718;2023-08-08T01:32:39;21.70;62.70
13928;DHT22;7036;50.834;4.718;2023-08-08T01:35:07;21.70;63.40
13928;DHT22;7036;50.834;4.718;2023-08-08T01:37:54;21.70;63.50
13928;DHT22;7036;50.834;4.718;2023-08-08T01:40:05;21.70;62.80
13928;DHT22;7036;50.834;4.718;2023-08-08T01:42:33;21.70;62.70
13928;DHT22;7036;50.834;4.718;2023-08-08T01:44:59;21.70;62.60
13928;DHT22;7036;50.834;4.718;2023-08-08T01:47:27;21.70;63.40
13928;DHT22;7036;50.834;4.718;2023-08-08T01:49:57;21.70;63.50
13928;DHT22;7036;50.834;4.718;2023-08-08T01:52:23;21.70;62.90
13928;DHT22;7036;50.834;4.718;2023-08-08T01:54:51;21.70;63.60
13928;DHT22;7036;50.834;4.718;2023-08-08T01:57:18;21.70;62.90
13928;DHT22;7036;50.834;4.718;2023-08-08T01:59:46;21.70;63.50
13928;DHT22;7036;50.834;4.718;2023-08-08T02:02:14;21.70;63.50
13928;DHT22;7036;50.834;4.718;2023-08-08T02:04:43;21.70;63.50
13928;DHT22;7036;50.834;4.718;2023-08-08T02:07:10;21.70;63.50
13928;DHT22;7036;50.834;4.718;2023-08-08T02:09:39;21.70;63.50
13928;DHT22;7036;50.834;4.718;2023-08-08T02:12:06;21.70;63.00
13928;DHT22;7036;50.834;4.718;2023-08-08T02:14:33;21.70;62.80
13928;DHT22;7036;50.834;4.718;2023-08-08T02:17:01;21.70;62.80
13928;DHT22;7036;50.834;4.718;2023-08-08T02:19:29;21.70;63.40
13928;DHT22;7036;50.834;4.718;2023-08-08T02:21:57;21.70;63.60
13928;DHT22;7036;50.834;4.718;2023-08-08T02:24:25;21.70;63.60
13928;DHT22;7036;50.834;4.718;2023-08-08T02:26:52;21.70;63.60
13928;DHT22;7036;50.834;4.718;2023-08-08T02:29:20;21.70;63.60
13928;DHT22;7036;50.834;4.718;2023-08-08T02:31:48;21.70;63.60
13928;DHT22;7036;50.834;4.718;2023-08-08T02:34:16;21.60;63.70
13928;DHT22;7036;50.834;4.718;2023-08-08T02:36:44;21.60;63.70
13928;DHT22;7036;50.834;4.718;2023-08-08T02:39:12;21.80;63.80
13928;DHT22;7036;50.834;4.718;2023-08-08T02:41:40;21.60;63.70
13928;DHT22;7036;50.834;4.718;2023-08-08T02:44:08;21.60;63.70
13928;DHT22;7036;50.834;4.718;2023-08-08T02:46:36;21.60;63.70
13928;DHT22;7036;50.834;4.718;2023-08-08T02:49:04;21.60;63.80
13928;DHT22;7036;50.834;4.718;2023-08-08T02:51:32;21.60;64.50
13928;DHT22;7036;50.834;4.718;2023-08-08T02:54:00;21.60;63.80
13928;DHT22;7036;50.834;4.718;2023-08-08T02:56:28;21.60;63.80
13928;DHT22;7036;50.834;4.718;2023-08-08T02:58:55;21.60;63.10
13928;DHT22;7036;50.834;4.718;2023-08-08T03:01:22;21.60;63.00
13928;DHT22;7036;50.834;4.718;2023-08-08T03:03:50;21.60;62.90
13928;DHT22;7036;50.834;4.718;2023-08-08T03:06:17;21.70;63.00
13928;DHT22;7036;50.834;4.718;2023-08-08T03:08:45;21.60;63.70
13928;DHT22;7036;50.834;4.718;2023-08-08T03:11:13;21.60;63.60
13928;DHT22;7036;50.834;4.718;2023-08-08T03:13:41;21.60;63.60
13928;DHT22;7036;50.834;4.718;2023-08-08T03:16:08;21.70;63.00
13928;DHT22;7036;50.834;4.718;2023-08-08T03:18:35;21.60;62.90
13928;DHT22;7036;50.834;4.718;2023-08-08T03:21:02;21.60;63.00
13928;DHT22;7036;50.834;4.718;2023-08-08T03:23:29;21.60;63.00
13928;DHT22;7036;50.834;4.718;2023-08-08T03:25:57;21.60;63.70
13928;DHT22;7036;50.834;4.718;2023-08-08T03:28:25;21.60;63.80
13928;DHT22;7036;50.834;4.718;2023-08-08T03:30:52;21.60;63.00
13928;DHT22;7036;50.834;4.718;2023-08-08T03:33:20;21.60;63.90
13928;DHT22;7036;50.834;4.718;2023-08-08T03:35:49;21.60;63.70
13928;DHT22;7036;50.834;4.718;2023-08-08T03:38:16;21.60;63.00
13928;DHT22;7036;50.834;4.718;2023-08-08T03:40:44;21.60;63.80
13928;DHT22;7036;50.834;4.718;2023-08-08T03:43:12;21.60;63.80
13928;DHT22;7036;50.834;4.718;2023-08-08T03:45:40;21.60;63.90
13928;DHT22;7036;50.834;4.718;2023-08-08T03:48:08;21.60;63.80
13928;DHT22;7036;50.834;4.718;2023-08-08T03:50:36;21.60;63.80
13928;DHT22;7036;50.834;4.718;2023-08-08T03:53:04;21.60;63.80
13928;DHT22;7036;50.834;4.718;2023-08-08T03:55:32;21.60;63.80
13928;DHT22;7036;50.834;4.718;2023-08-08T03:57:59;21.60;63.20
13928;DHT22;7036;50.834;4.718;2023-08-08T04:00:26;21.60;63.10
13928;DHT22;7036;50.834;4.718;2023-08-08T04:02:54;21.50;64.60
13928;DHT22;7036;50.834;4.718;2023-08-08T04:05:22;21.50;63.10
13928;DHT22;7036;50.834;4.718;2023-08-08T04:07:50;21.50;63.90
13928;DHT22;7036;50.834;4.718;2023-08-08T04:10:18;21.50;63.90
13928;DHT22;7036;50.834;4.718;2023-08-08T04:12:46;21.50;63.90
13928;DHT22;7036;50.834;4.718;2023-08-08T04:15:14;21.50;63.90
13928;DHT22;7036;50.834;4.718;2023-08-08T04:17:42;21.50;63.20
13928;DHT22;7036;50.834;4.718;2023-08-08T04:20:10;21.50;63.10
13928;DHT22;7036;50.834;4.718;2023-08-08T04:22:36;21.50;63.10
13928;DHT22;7036;50.834;4.718;2023-08-08T04:25:04;21.50;63.20
13928;DHT22;7036;50.834;4.718;2023-08-08T04:27:31;21.50;63.10
13928;DHT22;7036;50.834;4.718;2023-08-08T04:29:58;21.50;63.10
13928;DHT22;7036;50.834;4.718;2023-08-08T04:32:26;21.50;63.90
13928;DHT22;7036;50.834;4.718;2023-08-08T04:34:56;21.60;64.00
13928;DHT22;7036;50.834;4.718;2023-08-08T04:37:23;21.50;63.90
13928;DHT22;7036;50.834;4.718;2023-08-08T04:39:50;21.50;63.30
13928;DHT22;7036;50.834;4.718;2023-08-08T04:42:18;21.50;63.90
13928;DHT22;7036;50.834;4.718;2023-08-08T04:44:45;21.50;63.30
13928;DHT22;7036;50.834;4.718;2023-08-08T04:47:13;21.50;64.70
13928;DHT22;7036;50.834;4.718;2023-08-08T04:49:40;21.50;63.30
13928;DHT22;7036;50.834;4.718;2023-08-08T04:52:08;21.50;64.00
13928;DHT22;7036;50.834;4.718;2023-08-08T04:54:36;21.50;63.90
13928;DHT22;7036;50.834;4.718;2023-08-08T04:57:03;21.50;63.30
13928;DHT22;7036;50.834;4.718;2023-08-08T04:59:31;21.50;63.30
13928;DHT22;7036;50.834;4.718;2023-08-08T05:01:59;21.50;63.90
13928;DHT22;7036;50.834;4.718;2023-08-08T05:04:27;21.50;64.00
13928;DHT22;7036;50.834;4.718;2023-08-08T05:06:54;21.50;63.30
13928;DHT22;7036;50.834;4.718;2023-08-08T05:09:22;21.50;64.10
13928;DHT22;7036;50.834;4.718;2023-08-08T05:11:49;21.50;63.40
13928;DHT22;7036;50.834;4.718;2023-08-08T05:14:17;21.50;64.00
13928;DHT22;7036;50.834;4.718;2023-08-08T05:16:45;21.50;64.00
13928;DHT22;7036;50.834;4.718;2023-08-08T05:19:13;21.50;64.00
13928;DHT22;7036;50.834;4.718;2023-08-08T05:21:40;21.50;63.30
13928;DHT22;7036;50.834;4.718;2023-08-08T05:24:08;21.50;64.00
13928;DHT22;7036;50.834;4.718;2023-08-08T05:26:36;21.50;64.80
13928;DHT22;7036;50.834;4.718;2023-08-08T05:29:04;21.50;64.10
13928;DHT22;7036;50.834;4.718;2023-08-08T05:31:32;21.50;64.10
13928;DHT22;7036;50.834;4.718;2023-08-08T05:34:00;21.50;64.10
13928;DHT22;7036;50.834;4.718;2023-08-08T05:36:31;21.50;64.10
13928;DHT22;7036;50.834;4.718;2023-08-08T05:38:58;21.50;63.50
13928;DHT22;7036;50.834;4.718;2023-08-08T05:41:26;21.50;64.00
13928;DHT22;7036;50.834;4.718;2023-08-08T05:43:54;21.50;64.00
13928;DHT22;7036;50.834;4.718;2023-08-08T05:46:22;21.50;63.40
13928;DHT22;7036;50.834;4.718;2023-08-08T05:48:49;21.50;63.40
13928;DHT22;7036;50.834;4.718;2023-08-08T05:51:16;21.50;63.30
13928;DHT22;7036;50.834;4.718;2023-08-08T05:53:43;21.50;63.30
13928;DHT22;7036;50.834;4.718;2023-08-08T05:56:11;21.50;64.20
13928;DHT22;7036;50.834;4.718;2023-08-08T05:58:39;21.50;64.00
13928;DHT22;7036;50.834;4.718;2023-08-08T06:01:07;21.60;64.10
13928;DHT22;7036;50.834;4.718;2023-08-08T06:03:35;21.60;64.10
13928;DHT22;7036;50.834;4.718;2023-08-08T06:06:03;21.60;64.90
13928;DHT22;7036;50.834;4.718;2023-08-08T06:08:31;21.60;64.20
13928;DHT22;7036;50.834;4.718;2023-08-08T06:10:59;21.60;65.00
13928;DHT22;7036;50.834;4.718;2023-08-08T06:13:27;21.60;64.30
13928;DHT22;7036;50.834;4.718;2023-08-08T06:15:55;21.60;64.30
13928;DHT22;7036;50.834;4.718;2023-08-08T06:18:23;21.60;64.30
13928;DHT22;7036;50.834;4.718;2023-08-08T06:20:51;21.60;64.40
13928;DHT22;7036;50.834;4.718;2023-08-08T06:23:18;21.60;63.70
13928;DHT22;7036;50.834;4.718;2023-08-08T06:25:45;21.60;63.60
13928;DHT22;7036;50.834;4.718;2023-08-08T06:28:13;21.60;63.70
13928;DHT22;7036;50.834;4.718;2023-08-08T06:30:41;21.60;64.40
13928;DHT22;7036;50.834;4.718;2023-08-08T06:33:09;21.60;65.20
13928;DHT22;7036;50.834;4.718;2023-08-08T06:35:37;21.70;64.50
13928;DHT22;7036;50.834;4.718;2023-08-08T06:38:05;21.70;64.40
13928;DHT22;7036;50.834;4.718;2023-08-08T06:40:35;21.70;63.80
13928;DHT22;7036;50.834;4.718;2023-08-08T06:43:00;21.70;63.80
13928;DHT22;7036;50.834;4.718;2023-08-08T06:45:28;21.70;64.40
13928;DHT22;7036;50.834;4.718;2023-08-08T06:47:56;21.70;64.10
13928;DHT22;7036;50.834;4.718;2023-08-08T06:50:25;21.80;64.50
13928;DHT22;7036;50.834;4.718;2023-08-08T06:52:52;21.80;64.00
13928;DHT22;7036;50.834;4.718;2023-08-08T06:55:19;21.80;63.70
13928;DHT22;7036;50.834;4.718;2023-08-08T06:57:47;21.80;64.40
13928;DHT22;7036;50.834;4.718;2023-08-08T07:00:14;21.80;63.70
13928;DHT22;7036;50.834;4.718;2023-08-08T07:02:42;21.80;64.40
13928;DHT22;7036;50.834;4.718;2023-08-08T07:05:10;21.80;64.40
13928;DHT22;7036;50.834;4.718;2023-08-08T07:07:38;21.80;64.50
13928;DHT22;7036;50.834;4.718;2023-08-08T07:10:06;21.80;64.50
13928;DHT22;7036;50.834;4.718;2023-08-08T07:12:34;21.80;64.50
13928;DHT22;7036;50.834;4.718;2023-08-08T07:15:02;21.80;63.80
13928;DHT22;7036;50.834;4.718;2023-08-08T07:17:32;21.80;64.60
13928;DHT22;7036;50.834;4.718;2023-08-08T07:20:00;21.80;63.90
13928;DHT22;7036;50.834;4.718;2023-08-08T07:22:27;21.80;63.90
13928;DHT22;7036;50.834;4.718;2023-08-08T07:24:54;21.80;64.00
13928;DHT22;7036;50.834;4.718;2023-08-08T07:27:22;21.80;63.90
13928;DHT22;7036;50.834;4.718;2023-08-08T07:29:49;21.80;63.90
13928;DHT22;7036;50.834;4.718;2023-08-08T07:32:17;21.80;64.60
13928;DHT22;7036;50.834;4.718;2023-08-08T07:34:45;21.90;64.70
13928;DHT22;7036;50.834;4.718;2023-08-08T07:37:13;21.80;64.60
13928;DHT22;7036;50.834;4.718;2023-08-08T07:39:40;21.80;64.00
13928;DHT22;7036;50.834;4.718;2023-08-08T07:42:08;21.90;64.60
13928;DHT22;7036;50.834;4.718;2023-08-08T07:44:36;21.90;64.60
13928;DHT22;7036;50.834;4.718;2023-08-08T07:47:04;21.90;64.70
13928;DHT22;7036;50.834;4.718;2023-08-08T07:49:31;21.80;64.00
13928;DHT22;7036;50.834;4.718;2023-08-08T07:51:59;21.90;64.60
13928;DHT22;7036;50.834;4.718;2023-08-08T07:54:27;21.90;64.60
13928;DHT22;7036;50.834;4.718;2023-08-08T07:56:55;21.90;64.70
13928;DHT22;7036;50.834;4.718;2023-08-08T07:59:23;21.90;64.70
13928;DHT22;7036;50.834;4.718;2023-08-08T08:01:51;21.90;64.80
13928;DHT22;7036;50.834;4.718;2023-08-08T08:04:19;21.90;64.80
13928;DHT22;7036;50.834;4.718;2023-08-08T08:06:47;21.90;64.90
13928;DHT22;7036;50.834;4.718;2023-08-08T08:09:14;21.90;64.90
13928;DHT22;7036;50.834;4.718;2023-08-08T08:11:43;21.90;64.90
13928;DHT22;7036;50.834;4.718;2023-08-08T08:14:09;22.00;64.30
13928;DHT22;7036;50.834;4.718;2023-08-08T08:16:37;22.00;65.10
13928;DHT22;7036;50.834;4.718;2023-08-08T08:19:05;22.00;65.20
13928;DHT22;7036;50.834;4.718;2023-08-08T08:21:32;22.00;64.60
13928;DHT22;7036;50.834;4.718;2023-08-08T08:24:01;22.00;64.60
13928;DHT22;7036;50.834;4.718;2023-08-08T08:26:27;22.00;64.50
13928;DHT22;7036;50.834;4.718;2023-08-08T08:28:55;22.00;65.20
13928;DHT22;7036;50.834;4.718;2023-08-08T08:31:22;22.00;64.50
13928;DHT22;7036;50.834;4.718;2023-08-08T08:33:50;22.00;65.10
13928;DHT22;7036;50.834;4.718;2023-08-08T08:36:18;22.10;65.10
13928;DHT22;7036;50.834;4.718;2023-08-08T08:38:46;22.10;65.20
13928;DHT22;7036;50.834;4.718;2023-08-08T08:41:15;22.00;64.40
13928;DHT22;7036;50.834;4.718;2023-08-08T08:43:42;22.10;64.50
13928;DHT22;7036;50.834;4.718;2023-08-08T08:46:10;22.10;64.40
13928;DHT22;7036;50.834;4.718;2023-08-08T08:48:36;22.10;64.30
13928;DHT22;7036;50.834;4.718;2023-08-08T08:51:04;22.10;65.00
13928;DHT22;7036;50.834;4.718;2023-08-08T08:53:31;22.10;64.50
13928;DHT22;7036;50.834;4.718;2023-08-08T08:55:58;22.10;64.40
13928;DHT22;7036;50.834;4.718;2023-08-08T08:58:26;22.10;65.00
13928;DHT22;7036;50.834;4.718;2023-08-08T09:00:55;22.10;65.00
13928;DHT22;7036;50.834;4.718;2023-08-08T09:03:23;22.10;65.10
13928;DHT22;7036;50.834;4.718;2023-08-08T09:05:50;22.10;65.10
13928;DHT22;7036;50.834;4.718;2023-08-08T09:08:18;22.10;65.00
13928;DHT22;7036;50.834;4.718;2023-08-08T09:10:47;22.10;65.10
13928;DHT22;7036;50.834;4.718;2023-08-08T09:13:15;22.10;65.10
13928;DHT22;7036;50.834;4.718;2023-08-08T09:15:41;22.10;64.40
13928;DHT22;7036;50.834;4.718;2023-08-08T09:18:10;22.10;65.10
13928;DHT22;7036;50.834;4.718;2023-08-08T09:20:37;22.10;64.30
13928;DHT22;7036;50.834;4.718;2023-08-08T09:23:05;22.20;65.20
13928;DHT22;7036;50.834;4.718;2023-08-08T09:25:33;22.20;65.20
13928;DHT22;7036;50.834;4.718;2023-08-08T09:28:00;22.10;64.50
13928;DHT22;7036;50.834;4.718;2023-08-08T09:30:27;22.20;64.40
13928;DHT22;7036;50.834;4.718;2023-08-08T09:32:57;22.20;64.40
13928;DHT22;7036;50.834;4.718;2023-08-08T09:35:22;22.20;64.40
13928;DHT22;7036;50.834;4.718;2023-08-08T09:37:51;22.10;64.30
13928;DHT22;7036;50.834;4.718;2023-08-08T09:40:16;22.20;64.30
13928;DHT22;7036;50.834;4.718;2023-08-08T09:42:43;22.20;64.20
13928;DHT22;7036;50.834;4.718;2023-08-08T09:45:17;22.20;64.90
13928;DHT22;7036;50.834;4.718;2023-08-08T09:47:45;22.20;64.20
13928;DHT22;7036;50.834;4.718;2023-08-08T09:50:12;22.20;64.20
13928;DHT22;7036;50.834;4.718;2023-08-08T09:52:40;22.20;64.70
13928;DHT22;7036;50.834;4.718;2023-08-08T09:55:08;22.20;64.80
13928;DHT22;7036;50.834;4.718;2023-08-08T09:57:37;22.20;64.80
13928;DHT22;7036;50.834;4.718;2023-08-08T10:00:03;22.20;64.20
13928;DHT22;7036;50.834;4.718;2023-08-08T10:02:30;22.20;64.00
13928;DHT22;7036;50.834;4.718;2023-08-08T10:04:59;22.20;64.70
13928;DHT22;7036;50.834;4.718;2023-08-08T10:07:26;22.20;64.00
13928;DHT22;7036;50.834;4.718;2023-08-08T10:09:53;22.20;63.90
13928;DHT22;7036;50.834;4.718;2023-08-08T10:12:20;22.20;63.90
13928;DHT22;7036;50.834;4.718;2023-08-08T10:14:48;22.20;63.90
13928;DHT22;7036;50.834;4.718;2023-08-08T10:17:16;22.20;64.50
13928;DHT22;7036;50.834;4.718;2023-08-08T10:19:50;22.20;63.90
13928;DHT22;7036;50.834;4.718;2023-08-08T10:22:19;22.30;63.70
13928;DHT22;7036;50.834;4.718;2023-08-08T10:24:46;22.30;64.60
13928;DHT22;7036;50.834;4.718;2023-08-08T10:27:12;22.20;63.80
13928;DHT22;7036;50.834;4.718;2023-08-08T10:29:40;22.30;63.90
13928;DHT22;7036;50.834;4.718;2023-08-08T10:32:07;22.20;64.40
13928;DHT22;7036;50.834;4.718;2023-08-08T10:34:38;22.20;63.80
13928;DHT22;7036;50.834;4.718;2023-08-08T10:37:11;22.30;63.80
13928;DHT22;7036;50.834;4.718;2023-08-08T10:39:50;22.30;63.80
13928;DHT22;7036;50.834;4.718;2023-08-08T10:42:05;22.30;63.70
13928;DHT22;7036;50.834;4.718;2023-08-08T10:44:40;22.20;63.70
13928;DHT22;7036;50.834;4.718;2023-08-08T10:47:00;22.20;63.70
13928;DHT22;7036;50.834;4.718;2023-08-08T10:49:27;22.20;63.80
13928;DHT22;7036;50.834;4.718;2023-08-08T10:52:01;22.20;64.50
13928;DHT22;7036;50.834;4.718;2023-08-08T10:54:23;22.20;63.70
13928;DHT22;7036;50.834;4.718;2023-08-08T10:56:53;22.20;63.90
13928;DHT22;7036;50.834;4.718;2023-08-08T10:59:23;22.20;63.90
13928;DHT22;7036;50.834;4.718;2023-08-08T11:01:47;22.20;64.00
13928;DHT22;7036;50.834;4.718;2023-08-08T11:04:14;22.20;64.00
13928;DHT22;7036;50.834;4.718;2023-08-08T11:06:41;22.20;64.00
13928;DHT22;7036;50.834;4.718;2023-08-08T11:09:09;22.20;64.90
13928;DHT22;7036;50.834;4.718;2023-08-08T11:11:40;22.20;64.10
13928;DHT22;7036;50.834;4.718;2023-08-08T11:14:16;22.20;64.10
13928;DHT22;7036;50.834;4.718;2023-08-08T11:16:42;22.20;64.00
13928;DHT22;7036;50.834;4.718;2023-08-08T11:19:10;22.20;64.10
13928;DHT22;7036;50.834;4.718;2023-08-08T11:21:38;22.20;64.80
13928;DHT22;7036;50.834;4.718;2023-08-08T11:24:05;22.20;64.80
13928;DHT22;7036;50.834;4.718;2023-08-08T11:26:32;22.20;64.00
13928;DHT22;7036;50.834;4.718;2023-08-08T11:28:59;22.30;64.10
13928;DHT22;7036;50.834;4.718;2023-08-08T11:31:28;22.30;64.80
13928;DHT22;7036;50.834;4.718;2023-08-08T11:33:55;22.20;64.10
13928;DHT22;7036;50.834;4.718;2023-08-08T11:36:22;22.30;64.20
13928;DHT22;7036;50.834;4.718;2023-08-08T11:38:49;22.30;64.90
13928;DHT22;7036;50.834;4.718;2023-08-08T11:41:17;22.30;64.30
13928;DHT22;7036;50.834;4.718;2023-08-08T11:43:44;22.30;65.00
13928;DHT22;7036;50.834;4.718;2023-08-08T11:46:12;22.30;65.10
13928;DHT22;7036;50.834;4.718;2023-08-08T11:48:40;22.30;65.30
13928;DHT22;7036;50.834;4.718;2023-08-08T11:51:08;22.30;65.60
13928;DHT22;7036;50.834;4.718;2023-08-08T11:53:36;22.30;65.90
13928;DHT22;7036;50.834;4.718;2023-08-08T11:56:04;22.30;66.10
13928;DHT22;7036;50.834;4.718;2023-08-08T11:58:32;22.30;66.20
13928;DHT22;7036;50.834;4.718;2023-08-08T12:01:00;22.30;66.40
13928;DHT22;7036;50.834;4.718;2023-08-08T12:03:28;22.30;66.40
13928;DHT22;7036;50.834;4.718;2023-08-08T12:05:56;22.30;66.60
13928;DHT22;7036;50.834;4.718;2023-08-08T12:08:24;22.30;65.70
13928;DHT22;7036;50.834;4.718;2023-08-08T12:10:51;22.30;66.00
13928;DHT22;7036;50.834;4.718;2023-08-08T12:13:25;22.30;66.60
13928;DHT22;7036;50.834;4.718;2023-08-08T12:15:52;22.30;65.90
13928;DHT22;7036;50.834;4.718;2023-08-08T12:18:20;22.40;66.60
13928;DHT22;7036;50.834;4.718;2023-08-08T12:20:50;22.40;66.40
13928;DHT22;7036;50.834;4.718;2023-08-08T12:23:17;22.30;65.70
13928;DHT22;7036;50.834;4.718;2023-08-08T12:25:45;22.40;66.40
13928;DHT22;7036;50.834;4.718;2023-08-08T12:28:13;22.40;66.40
13928;DHT22;7036;50.834;4.718;2023-08-08T12:30:40;22.30;65.70
13928;DHT22;7036;50.834;4.718;2023-08-08T12:33:07;22.30;65.80
13928;DHT22;7036;50.834;4.718;2023-08-08T12:35:34;22.30;65.70
13928;DHT22;7036;50.834;4.718;2023-08-08T12:38:02;22.40;66.60
13928;DHT22;7036;50.834;4.718;2023-08-08T12:40:29;22.40;65.90
13928;DHT22;7036;50.834;4.718;2023-08-08T12:42:57;22.40;66.40
13928;DHT22;7036;50.834;4.718;2023-08-08T12:45:25;22.40;67.20
13928;DHT22;7036;50.834;4.718;2023-08-08T12:47:53;22.40;65.80
13928;DHT22;7036;50.834;4.718;2023-08-08T12:50:20;22.40;65.90
13928;DHT22;7036;50.834;4.718;2023-08-08T12:52:48;22.40;66.70
13928;DHT22;7036;50.834;4.718;2023-08-08T12:55:16;22.50;66.70
13928;DHT22;7036;50.834;4.718;2023-08-08T12:57:43;22.40;66.00
13928;DHT22;7036;50.834;4.718;2023-08-08T13:00:11;22.50;66.00
13928;DHT22;7036;50.834;4.718;2023-08-08T13:02:38;22.50;65.90
13928;DHT22;7036;50.834;4.718;2023-08-08T13:05:06;22.50;66.60
13928;DHT22;7036;50.834;4.718;2023-08-08T13:07:34;22.40;66.70
13928;DHT22;7036;50.834;4.718;2023-08-08T13:10:01;22.50;65.90
13928;DHT22;7036;50.834;4.718;2023-08-08T13:12:28;22.50;66.60
13928;DHT22;7036;50.834;4.718;2023-08-08T13:14:56;22.50;66.60
13928;DHT22;7036;50.834;4.718;2023-08-08T13:17:24;22.50;66.60
13928;DHT22;7036;50.834;4.718;2023-08-08T13:19:53;22.50;66.70
13928;DHT22;7036;50.834;4.718;2023-08-08T13:22:20;22.50;66.00
13928;DHT22;7036;50.834;4.718;2023-08-08T13:24:48;22.50;66.20
13928;DHT22;7036;50.834;4.718;2023-08-08T13:27:15;22.50;66.00
13928;DHT22;7036;50.834;4.718;2023-08-08T13:29:42;22.50;66.00
13928;DHT22;7036;50.834;4.718;2023-08-08T13:32:10;22.50;66.60
13928;DHT22;7036;50.834;4.718;2023-08-08T13:34:38;22.50;66.70
13928;DHT22;7036;50.834;4.718;2023-08-08T13:37:07;22.50;66.00
13928;DHT22;7036;50.834;4.718;2023-08-08T13:39:33;22.50;66.10
13928;DHT22;7036;50.834;4.718;2023-08-08T13:42:01;22.50;66.50
13928;DHT22;7036;50.834;4.718;2023-08-08T13:44:29;22.50;66.50
13928;DHT22;7036;50.834;4.718;2023-08-08T13:46:56;22.50;65.90
13928;DHT22;7036;50.834;4.718;2023-08-08T13:49:24;22.50;66.40
13928;DHT22;7036;50.834;4.718;2023-08-08T13:51:52;22.50;65.80
13928;DHT22;7036;50.834;4.718;2023-08-08T13:54:19;22.60;65.60
13928;DHT22;7036;50.834;4.718;2023-08-08T13:56:47;22.60;66.40
13928;DHT22;7036;50.834;4.718;2023-08-08T13:59:15;22.50;66.40
13928;DHT22;7036;50.834;4.718;2023-08-08T14:01:42;22.50;65.70
13928;DHT22;7036;50.834;4.718;2023-08-08T14:04:09;22.60;65.80
13928;DHT22;7036;50.834;4.718;2023-08-08T14:06:37;22.60;66.40
13928;DHT22;7036;50.834;4.718;2023-08-08T14:09:04;22.50;65.70
13928;DHT22;7036;50.834;4.718;2023-08-08T14:11:32;22.60;66.50
13928;DHT22;7036;50.834;4.718;2023-08-08T14:14:00;22.60;66.60
13928;DHT22;7036;50.834;4.718;2023-08-08T14:16:27;22.50;65.90
13928;DHT22;7036;50.834;4.718;2023-08-08T14:18:54;22.60;65.80
13928;DHT22;7036;50.834;4.718;2023-08-08T14:21:21;22.60;65.80
13928;DHT22;7036;50.834;4.718;2023-08-08T14:23:49;22.60;65.80
13928;DHT22;7036;50.834;4.718;2023-08-08T14:26:17;22.60;66.40
13928;DHT22;7036;50.834;4.718;2023-08-08T14:28:45;22.60;66.40
13928;DHT22;7036;50.834;4.718;2023-08-08T14:31:14;22.60;66.40
13928;DHT22;7036;50.834;4.718;2023-08-08T14:33:40;22.60;65.60
13928;DHT22;7036;50.834;4.718;2023-08-08T14:36:08;22.60;66.30
13928;DHT22;7036;50.834;4.718;2023-08-08T14:38:36;22.60;65.60
13928;DHT22;7036;50.834;4.718;2023-08-08T14:41:03;22.60;65.60
13928;DHT22;7036;50.834;4.718;2023-08-08T14:43:31;22.60;66.30
13928;DHT22;7036;50.834;4.718;2023-08-08T14:45:58;22.60;66.20
13928;DHT22;7036;50.834;4.718;2023-08-08T14:48:26;22.60;66.20
13928;DHT22;7036;50.834;4.718;2023-08-08T14:50:55;22.60;65.50
13928;DHT22;7036;50.834;4.718;2023-08-08T14:53:21;22.60;65.40
13928;DHT22;7036;50.834;4.718;2023-08-08T14:55:49;22.60;66.50
13928;DHT22;7036;50.834;4.718;2023-08-08T14:58:17;22.60;66.60
13928;DHT22;7036;50.834;4.718;2023-08-08T15:00:44;22.60;65.90
13928;DHT22;7036;50.834;4.718;2023-08-08T15:03:12;22.60;66.10
13928;DHT22;7036;50.834;4.718;2023-08-08T15:05:40;22.60;66.80
13928;DHT22;7036;50.834;4.718;2023-08-08T15:08:08;22.60;67.00
13928;DHT22;7036;50.834;4.718;2023-08-08T15:10:36;22.60;67.10
13928;DHT22;7036;50.834;4.718;2023-08-08T15:13:03;22.60;67.10
13928;DHT22;7036;50.834;4.718;2023-08-08T15:15:31;22.60;67.10
13928;DHT22;7036;50.834;4.718;2023-08-08T15:18:00;22.60;67.00
13928;DHT22;7036;50.834;4.718;2023-08-08T15:20:27;22.60;66.30
13928;DHT22;7036;50.834;4.718;2023-08-08T15:22:54;22.70;66.30
13928;DHT22;7036;50.834;4.718;2023-08-08T15:25:23;22.70;66.40
13928;DHT22;7036;50.834;4.718;2023-08-08T15:27:50;22.60;66.20
13928;DHT22;7036;50.834;4.718;2023-08-08T15:30:17;22.60;66.30
13928;DHT22;7036;50.834;4.718;2023-08-08T15:32:45;22.70;67.10
13928;DHT22;7036;50.834;4.718;2023-08-08T15:35:15;22.70;67.10
13928;DHT22;7036;50.834;4.718;2023-08-08T15:37:41;22.70;66.40
13928;DHT22;7036;50.834;4.718;2023-08-08T15:40:09;22.70;66.30
13928;DHT22;7036;50.834;4.718;2023-08-08T15:42:37;22.70;67.10
13928;DHT22;7036;50.834;4.718;2023-08-08T15:45:04;22.70;66.50
13928;DHT22;7036;50.834;4.718;2023-08-08T15:47:32;22.60;67.00